Time;durP1;ratioP1;P1;durP2;ratioP2;P2;SDS_P1;SDS_P2;PMS_P1;PMS_P2;Temp;Humidity;BMP_temperature;BMP_pressure;BME280_temperature;BME280_humidity;BME280_pressure;Samples;Min_cycle;Max_cycle;Signal;HPM_P1;HPM_P2
2022/12/11 00:00:43;;;;;;;47.58;13.27;;;;;;;0.01;0.00;59042.03;5037548;28;20037;-60
2022/12/11 00:03:09;;;;;;;44.25;12.57;;;;;;;0.01;0.00;59042.03;5037511;28;20171;-57
2022/12/11 00:05:37;;;;;;;47.83;13.32;;;;;;;0.01;0.00;59042.03;5037578;28;20044;-58
2022/12/11 00:08:03;;;;;;;49.92;14.07;;;;;;;0.01;0.00;59042.03;5037578;28;20577;-59
2022/12/11 00:10:28;;;;;;;51.15;13.70;;;;;;;0.01;0.00;59042.03;5037124;28;20029;-58
2022/12/11 00:12:53;;;;;;;42.88;13.02;;;;;;;0.01;0.00;59042.03;5037427;28;20028;-59
2022/12/11 00:15:19;;;;;;;47.95;12.50;;;;;;;0.01;0.00;59042.03;5037308;28;20027;-59
2022/12/11 00:17:44;;;;;;;46.55;12.32;;;;;;;0.01;0.00;59042.03;5038273;28;20019;-58
2022/12/11 00:20:10;;;;;;;47.35;12.40;;;;;;;0.01;0.00;59042.03;5036972;28;20889;-57
2022/12/11 00:22:35;;;;;;;39.55;11.98;;;;;;;0.01;0.00;59042.03;5037484;28;20037;-59
2022/12/11 00:25:01;;;;;;;51.03;11.93;;;;;;;0.01;0.00;59042.03;5037039;28;20395;-57
2022/12/11 00:27:26;;;;;;;43.42;12.75;;;;;;;0.01;0.00;59042.03;5036795;28;20047;-57
2022/12/11 00:29:51;;;;;;;54.92;13.98;;;;;;;0.01;0.00;59042.03;5037556;28;20021;-57
2022/12/11 00:32:17;;;;;;;49.17;12.35;;;;;;;0.01;0.00;59042.03;5036159;28;20047;-58
2022/12/11 00:34:42;;;;;;;47.35;12.88;;;;;;;0.01;0.00;59042.03;5037540;28;20036;-57
2022/12/11 00:37:07;;;;;;;42.92;12.55;;;;;;;0.01;0.00;59042.03;5036808;28;20049;-57
2022/12/11 00:39:33;;;;;;;45.80;12.07;;;;;;;0.01;0.00;59042.03;5036930;28;20034;-58
2022/12/11 00:41:58;;;;;;;46.78;13.25;;;;;;;0.01;0.00;59042.03;5018762;28;20048;-58
2022/12/11 00:44:24;;;;;;;47.95;12.38;;;;;;;0.01;0.00;59042.03;5037046;28;20206;-57
2022/12/11 00:46:49;;;;;;;39.65;11.82;;;;;;;0.01;0.00;59042.03;5036721;28;20531;-57
2022/12/11 00:49:14;;;;;;;40.58;11.05;;;;;;;0.01;0.00;59042.03;5037253;28;20074;-56
2022/12/11 00:51:40;;;;;;;45.50;12.85;;;;;;;0.01;0.00;59042.03;5036162;28;20715;-59
2022/12/11 00:54:05;;;;;;;45.72;12.73;;;;;;;0.01;0.00;59042.03;5037174;28;20120;-56
2022/12/11 00:56:31;;;;;;;55.00;12.32;;;;;;;0.01;0.00;59042.03;5037567;28;20102;-56
2022/12/11 00:58:56;;;;;;;49.08;12.02;;;;;;;0.01;0.00;59042.03;5041293;28;20471;-59
2022/12/11 01:01:24;;;;;;;55.70;13.32;;;;;;;0.01;0.00;59042.03;5040074;28;20041;-57
2022/12/11 01:03:50;;;;;;;43.80;12.00;;;;;;;0.01;0.00;59042.03;5040298;28;20045;-60
2022/12/11 01:06:18;;;;;;;44.63;11.82;;;;;;;0.01;0.00;59042.03;5040579;28;20037;-60
2022/12/11 01:08:45;;;;;;;53.38;13.45;;;;;;;0.01;0.00;59042.03;5022832;28;20811;-58
2022/12/11 01:11:12;;;;;;;41.78;11.10;;;;;;;0.01;0.00;59042.03;5039970;28;20094;-57
2022/12/11 01:13:39;;;;;;;43.58;12.10;;;;;;;0.01;0.00;59042.03;5040808;28;20159;-57
2022/12/11 01:16:07;;;;;;;45.92;11.57;;;;;;;0.01;0.00;59042.03;5040265;28;20041;-57
2022/12/11 01:18:32;;;;;;;46.25;12.38;;;;;;;0.01;0.00;59042.03;5040587;28;20016;-57
2022/12/11 01:20:57;;;;;;;50.47;13.05;;;;;;;0.01;0.00;59042.03;5039713;28;20506;-57
2022/12/11 01:23:23;;;;;;;44.58;11.98;;;;;;;0.01;0.00;59042.03;5040606;28;20124;-57
2022/12/11 01:25:48;;;;;;;45.22;11.93;;;;;;;0.01;0.00;59042.03;5040120;28;20033;-58
2022/12/11 01:28:13;;;;;;;37.72;11.63;;;;;;;0.01;0.00;59042.03;5040998;28;20819;-56
2022/12/11 01:30:41;;;;;;;41.35;12.30;;;;;;;0.01;0.00;59042.03;5039835;28;20041;-57
2022/12/11 01:33:07;;;;;;;54.90;14.35;;;;;;;0.01;0.00;59042.03;5040222;28;20035;-59
2022/12/11 01:35:32;;;;;;;49.70;12.70;;;;;;;0.01;0.00;59042.03;5040004;28;20033;-59
2022/12/11 01:37:58;;;;;;;42.35;12.50;;;;;;;0.01;0.00;59042.03;5039856;28;20775;-60
2022/12/11 01:40:23;;;;;;;40.63;12.15;;;;;;;0.01;0.00;59042.03;5040013;28;20033;-58
2022/12/11 01:42:49;;;;;;;46.67;12.25;;;;;;;0.01;0.00;59042.03;5040461;28;20033;-59
2022/12/11 01:45:20;;;;;;;44.78;12.38;;;;;;;0.01;0.00;59042.03;5039792;28;20083;-60
2022/12/11 01:47:47;;;;;;;50.58;13.98;;;;;;;0.01;0.00;59042.03;5040374;28;20111;-58
2022/12/11 01:50:13;;;;;;;51.47;13.35;;;;;;;0.01;0.00;59042.03;5039072;28;20386;-57
2022/12/11 01:52:40;;;;;;;44.05;13.05;;;;;;;0.01;0.00;59042.03;5039740;28;20025;-58
2022/12/11 01:55:07;;;;;;;44.90;12.27;;;;;;;0.01;0.00;59042.03;5039477;28;20696;-60
2022/12/11 01:57:33;;;;;;;47.38;12.25;;;;;;;0.01;0.00;59042.03;5039624;28;20041;-59
2022/12/11 01:59:59;;;;;;;48.92;12.55;;;;;;;0.01;0.00;59042.03;5039573;28;20158;-57
2022/12/11 02:02:30;;;;;;;53.22;13.13;;;;;;;0.01;0.00;59042.03;5038637;28;20041;-57
2022/12/11 02:04:55;;;;;;;53.75;12.57;;;;;;;0.01;0.00;59042.03;5039975;28;20048;-60
2022/12/11 02:07:21;;;;;;;53.05;13.55;;;;;;;0.01;0.00;59042.03;5038445;28;20060;-60
2022/12/11 02:09:47;;;;;;;48.67;11.63;;;;;;;0.01;0.00;59042.03;5039276;28;20300;-58
2022/12/11 02:12:27;;;;;;;51.67;12.80;;;;;;;0.01;0.00;59042.03;5039413;28;20033;-60
2022/12/11 02:15:14;;;;;;;44.75;10.68;;;;;;;0.01;0.00;59042.03;5039435;28;20099;-58
2022/12/11 02:17:45;;;;;;;38.38;11.65;;;;;;;0.01;0.00;59042.03;5039262;28;20107;-59
2022/12/11 02:20:25;;;;;;;40.67;11.13;;;;;;;0.01;0.00;59042.03;5038300;28;20035;-58
2022/12/11 02:23:06;;;;;;;48.10;13.40;;;;;;;0.01;0.00;59042.03;5038914;28;20016;-57
2022/12/11 02:25:51;;;;;;;51.60;13.60;;;;;;;0.01;0.00;59042.03;5038626;28;20128;-61
2022/12/11 02:28:42;;;;;;;41.45;10.60;;;;;;;0.01;0.00;59042.03;5021184;28;20028;-58
2022/12/11 02:31:31;;;;;;;46.17;12.50;;;;;;;0.01;0.00;59042.03;5038531;28;20037;-58
2022/12/11 02:34:07;;;;;;;48.35;12.63;;;;;;;0.01;0.00;59042.03;5039353;28;20029;-58
2022/12/11 02:36:37;;;;;;;46.08;12.07;;;;;;;0.01;0.00;59042.03;5038707;28;20037;-57
2022/12/11 02:39:06;;;;;;;46.10;11.90;;;;;;;0.01;0.00;59042.03;5039303;28;20067;-58
2022/12/11 02:41:32;;;;;;;43.90;10.70;;;;;;;0.01;0.00;59042.03;5037887;28;20172;-58
2022/12/11 02:44:01;;;;;;;48.92;13.30;;;;;;;0.01;0.00;59042.03;5038754;28;20021;-61
2022/12/11 02:46:27;;;;;;;48.00;13.23;;;;;;;0.01;0.00;59042.03;5038611;28;20205;-58
2022/12/11 02:48:54;;;;;;;54.95;12.80;;;;;;;0.01;0.00;59042.03;5038602;28;20025;-58
2022/12/11 02:51:27;;;;;;;45.75;12.43;;;;;;;0.01;0.00;59042.03;5038428;28;20060;-58
2022/12/11 02:53:57;;;;;;;55.75;13.68;;;;;;;0.01;0.00;59042.03;5038449;28;20117;-58
2022/12/11 02:56:31;;;;;;;52.60;14.13;;;;;;;0.01;0.00;59042.03;5038644;28;20045;-58
2022/12/11 02:59:05;;;;;;;52.38;12.70;;;;;;;0.01;0.00;59042.03;5038378;28;20128;-58
2022/12/11 03:01:31;;;;;;;49.60;13.50;;;;;;;0.01;0.00;59042.03;5037829;28;20068;-58
2022/12/11 03:03:57;;;;;;;55.65;13.98;;;;;;;0.01;0.00;59042.03;5038163;28;20116;-59
2022/12/11 03:06:27;;;;;;;47.80;12.75;;;;;;;0.01;0.00;59042.03;5038504;28;20503;-58
2022/12/11 03:08:53;;;;;;;49.65;13.75;;;;;;;0.01;0.00;59042.03;5038798;28;20647;-58
2022/12/11 03:11:18;;;;;;;44.17;11.77;;;;;;;0.01;0.00;59042.03;5037891;28;20619;-57
2022/12/11 03:13:43;;;;;;;44.17;13.10;;;;;;;0.01;0.00;59042.03;5038908;28;20032;-59
2022/12/11 03:16:23;;;;;;;48.90;13.38;;;;;;;0.01;0.00;59042.03;5038162;28;20052;-58
2022/12/11 03:19:19;;;;;;;42.83;12.50;;;;;;;0.01;0.00;59042.03;5038239;28;20043;-59
2022/12/11 03:22:08;;;;;;;44.08;12.20;;;;;;;0.01;0.00;59042.03;5037451;28;20032;-57
2022/12/11 03:24:43;;;;;;;45.63;12.45;;;;;;;0.01;0.00;59042.03;5037883;28;20048;-59
2022/12/11 03:27:22;;;;;;;50.85;12.55;;;;;;;0.01;0.00;59042.03;5034549;28;20053;-61
2022/12/11 03:29:58;;;;;;;55.50;13.43;;;;;;;0.01;0.00;59042.03;5035865;28;20601;-58
2022/12/11 03:32:29;;;;;;;48.45;12.27;;;;;;;0.01;0.00;59042.03;5019397;28;20053;-58
2022/12/11 03:35:25;;;;;;;56.50;14.15;;;;;;;0.01;0.00;59042.03;5038726;28;20090;-59
2022/12/11 03:37:53;;;;;;;46.17;11.55;;;;;;;0.01;0.00;59042.03;5037433;28;20033;-57
2022/12/11 03:40:21;;;;;;;45.83;12.15;;;;;;;0.01;0.00;59042.03;5037599;28;20384;-58
2022/12/11 03:42:52;;;;;;;40.65;12.18;;;;;;;0.01;0.00;59042.03;5037561;28;20031;-60
2022/12/11 03:45:21;;;;;;;48.90;13.27;;;;;;;0.01;0.00;59042.03;5036409;28;20071;-57
2022/12/11 03:47:47;;;;;;;46.40;12.43;;;;;;;0.01;0.00;59042.03;5038115;28;20025;-57
2022/12/11 03:50:14;;;;;;;43.88;11.90;;;;;;;0.01;0.00;59042.03;5037549;28;20862;-59
2022/12/11 03:52:42;;;;;;;50.55;12.95;;;;;;;0.01;0.00;59042.03;5037111;28;20292;-60
2022/12/11 03:55:11;;;;;;;44.03;11.75;;;;;;;0.01;0.00;59042.03;5036753;28;20021;-58
2022/12/11 03:57:37;;;;;;;58.50;14.00;;;;;;;0.01;0.00;59042.03;5037534;28;20083;-58
2022/12/11 04:00:09;;;;;;;43.80;12.98;;;;;;;0.01;0.00;59042.03;5037706;28;20095;-57
2022/12/11 04:02:34;;;;;;;44.00;11.52;;;;;;;0.01;0.00;59042.03;5036695;28;20041;-57
2022/12/11 04:04:59;;;;;;;51.13;13.65;;;;;;;0.01;0.00;59042.03;5037859;28;20025;-57
2022/12/11 04:07:25;;;;;;;40.88;11.88;;;;;;;0.01;0.00;59042.03;5037261;28;20048;-57
2022/12/11 04:09:50;;;;;;;52.67;13.13;;;;;;;0.01;0.00;59042.03;5037398;28;20043;-58
2022/12/11 04:12:15;;;;;;;41.90;12.18;;;;;;;0.01;0.00;59042.03;5036938;28;20683;-57
2022/12/11 04:25:37;;;;;;;41.92;12.13;;;;;;;0.01;0.00;59042.03;5037118;28;20091;-59
2022/12/11 04:28:03;;;;;;;56.88;13.18;;;;;;;0.01;0.00;59042.03;5037310;28;20025;-60
2022/12/11 04:30:28;;;;;;;49.28;12.52;;;;;;;0.01;0.00;59042.03;5036595;28;20040;-57
2022/12/11 04:32:54;;;;;;;39.03;11.35;;;;;;;0.01;0.00;59042.03;5036482;28;20078;-58
2022/12/11 04:35:20;;;;;;;44.17;11.88;;;;;;;0.01;0.00;59042.03;5037140;28;20112;-58
2022/12/11 04:37:46;;;;;;;44.47;11.80;;;;;;;0.01;0.00;59042.03;5037599;28;20025;-58
2022/12/11 04:40:14;;;;;;;46.33;12.85;;;;;;;0.01;0.00;59042.03;5036740;28;20131;-58
2022/12/11 04:42:40;;;;;;;48.55;12.85;;;;;;;0.01;0.00;59042.03;5036829;28;20029;-59
2022/12/11 04:45:07;;;;;;;48.83;13.10;;;;;;;0.01;0.00;59042.03;5037169;28;20021;-59
2022/12/11 04:47:34;;;;;;;45.83;13.10;;;;;;;0.01;0.00;59042.03;5036940;28;20041;-58
2022/12/11 04:50:00;;;;;;;41.88;11.70;;;;;;;0.01;0.00;59042.03;5036918;28;20486;-59
2022/12/11 04:52:25;;;;;;;41.60;11.68;;;;;;;0.01;0.00;59042.03;5036372;28;20045;-57
2022/12/11 04:54:50;;;;;;;37.25;11.07;;;;;;;0.01;0.00;59042.03;5037094;28;20025;-57
2022/12/11 04:57:16;;;;;;;51.88;13.32;;;;;;;0.01;0.00;59042.03;5036513;28;20171;-58
2022/12/11 04:59:41;;;;;;;50.35;12.98;;;;;;;0.01;0.00;59042.03;5036954;28;20032;-58
2022/12/11 05:02:06;;;;;;;44.13;12.80;;;;;;;0.01;0.00;59042.03;5036007;28;20030;-57
2022/12/11 05:04:33;;;;;;;46.80;12.25;;;;;;;0.01;0.00;59042.03;5036136;28;20059;-57
2022/12/11 05:07:00;;;;;;;41.03;11.05;;;;;;;0.01;0.00;59042.03;5036675;28;20510;-59
2022/12/11 05:09:26;;;;;;;49.60;12.63;;;;;;;0.01;0.00;59042.03;5036719;28;20032;-59
2022/12/11 05:11:51;;;;;;;45.13;11.88;;;;;;;0.01;0.00;59042.03;5036634;28;20060;-58
2022/12/11 05:14:17;;;;;;;41.92;11.55;;;;;;;0.01;0.00;59042.03;5037162;28;20020;-62
2022/12/11 05:16:42;;;;;;;48.33;12.48;;;;;;;0.01;0.00;59042.03;5036476;28;20033;-57
2022/12/11 05:19:08;;;;;;;45.40;12.52;;;;;;;0.01;0.00;59042.03;5037135;28;20281;-58
2022/12/11 05:21:33;;;;;;;51.97;13.32;;;;;;;0.01;0.00;59042.03;5035951;28;20079;-58
2022/12/11 05:23:59;;;;;;;35.08;11.15;;;;;;;0.01;0.00;59042.03;5036965;28;20028;-58
2022/12/11 05:26:24;;;;;;;47.22;11.57;;;;;;;0.01;0.00;59042.03;5036512;28;20134;-58
2022/12/11 05:28:52;;;;;;;51.17;13.07;;;;;;;0.01;0.00;59042.03;5036815;28;20078;-58
2022/12/11 05:31:20;;;;;;;45.67;11.80;;;;;;;0.01;0.00;59042.03;5036192;28;20648;-60
2022/12/11 05:33:46;;;;;;;56.78;13.73;;;;;;;0.01;0.00;59042.03;5036150;28;20029;-59
2022/12/11 05:36:22;;;;;;;46.83;11.35;;;;;;;0.01;0.00;59042.03;5036555;28;20040;-60
2022/12/11 05:38:47;;;;;;;43.30;11.45;;;;;;;0.01;0.00;59042.03;5036074;28;20116;-59
2022/12/11 05:41:15;;;;;;;47.90;12.25;;;;;;;0.01;0.00;59042.03;5036120;28;20143;-57
2022/12/11 05:43:41;;;;;;;51.65;13.52;;;;;;;0.01;0.00;59042.03;5039805;28;20098;-58
2022/12/11 05:46:16;;;;;;;40.03;12.10;;;;;;;0.01;0.00;59042.03;5039789;28;20049;-59
2022/12/11 05:48:43;;;;;;;44.20;11.65;;;;;;;0.01;0.00;59042.03;5040545;28;20033;-60
2022/12/11 05:51:09;;;;;;;47.65;12.57;;;;;;;0.01;0.00;59042.03;5038845;28;20116;-58
2022/12/11 05:53:36;;;;;;;54.50;13.98;;;;;;;0.01;0.00;59042.03;5040391;28;20135;-56
2022/12/11 05:56:04;;;;;;;43.15;11.68;;;;;;;0.01;0.00;59042.03;5039314;28;20056;-59
2022/12/11 05:58:29;;;;;;;43.47;11.45;;;;;;;0.01;0.00;59042.03;5039829;28;20566;-58
2022/12/11 06:00:55;;;;;;;51.17;13.02;;;;;;;0.01;0.00;59042.03;5039344;28;20040;-58
2022/12/11 06:03:20;;;;;;;44.20;11.63;;;;;;;0.01;0.00;59042.03;5040085;28;20036;-60
2022/12/11 06:05:46;;;;;;;46.58;13.85;;;;;;;0.01;0.00;59042.03;5039607;28;20025;-58
2022/12/11 06:08:11;;;;;;;47.75;12.00;;;;;;;0.01;0.00;59042.03;5039952;28;20480;-58
2022/12/11 06:10:37;;;;;;;40.80;10.30;;;;;;;0.01;0.00;59042.03;5039413;28;20080;-60
2022/12/11 06:13:02;;;;;;;39.28;11.13;;;;;;;0.01;0.00;59042.03;5039823;28;20049;-62
2022/12/11 06:15:28;;;;;;;37.92;10.13;;;;;;;0.01;0.00;59042.03;5039271;28;20044;-61
2022/12/11 06:17:53;;;;;;;38.95;10.60;;;;;;;0.01;0.00;59042.03;5040188;28;20028;-61
2022/12/11 06:20:19;;;;;;;44.80;11.48;;;;;;;0.01;0.00;59042.03;5039167;28;20031;-61
2022/12/11 06:22:44;;;;;;;40.80;11.25;;;;;;;0.01;0.00;59042.03;5039232;28;20047;-59
2022/12/11 06:25:10;;;;;;;42.13;10.60;;;;;;;0.01;0.00;59042.03;5039260;28;20032;-62
2022/12/11 06:27:35;;;;;;;47.72;11.95;;;;;;;0.01;0.00;59042.03;5039480;28;20115;-57
2022/12/11 06:30:00;;;;;;;42.97;11.80;;;;;;;0.01;0.00;59042.03;5039607;28;20025;-57
2022/12/11 06:32:26;;;;;;;43.95;11.65;;;;;;;0.01;0.00;59042.03;5038563;28;20457;-55
2022/12/11 06:34:51;;;;;;;40.90;10.80;;;;;;;0.01;0.00;59042.03;5039383;28;20068;-58
2022/12/11 06:37:17;;;;;;;41.05;10.65;;;;;;;0.01;0.00;59042.03;5039021;28;20115;-59
2022/12/11 06:39:42;;;;;;;36.38;10.73;;;;;;;0.01;0.00;59042.03;5038885;28;20040;-59
2022/12/11 06:42:08;;;;;;;44.35;12.40;;;;;;;0.01;0.00;59042.03;5038661;28;20040;-59
2022/12/11 06:44:33;;;;;;;49.90;12.32;;;;;;;0.01;0.00;59042.03;5039068;28;20035;-56
2022/12/11 06:46:58;;;;;;;40.97;11.95;;;;;;;0.01;0.00;59042.03;5038820;28;20047;-57
2022/12/11 06:49:24;;;;;;;44.75;12.85;;;;;;;0.01;0.00;59042.03;5039522;28;20029;-56
2022/12/11 06:51:49;;;;;;;47.13;12.30;;;;;;;0.01;0.00;59042.03;5038541;28;21005;-59
2022/12/11 06:54:14;;;;;;;44.13;12.23;;;;;;;0.01;0.00;59042.03;5038372;28;20021;-58
2022/12/11 06:56:40;;;;;;;43.90;11.98;;;;;;;0.01;0.00;59042.03;5038411;28;20043;-58
2022/12/11 06:59:06;;;;;;;50.63;12.80;;;;;;;0.01;0.00;59042.03;5038882;28;20040;-58
2022/12/11 07:01:31;;;;;;;47.88;12.43;;;;;;;0.01;0.00;59042.03;5038058;28;20069;-58
2022/12/11 07:03:58;;;;;;;45.28;11.15;;;;;;;0.01;0.00;59042.03;5038706;28;20021;-60
2022/12/11 07:06:25;;;;;;;41.55;11.40;;;;;;;0.01;0.00;59042.03;5038266;28;20069;-59
2022/12/11 07:08:51;;;;;;;51.03;13.40;;;;;;;0.01;0.00;59042.03;5038598;28;20082;-62
2022/12/11 07:11:19;;;;;;;42.35;11.98;;;;;;;0.01;0.00;59042.03;5038376;28;20740;-59
2022/12/11 07:13:45;;;;;;;50.40;12.93;;;;;;;0.01;0.00;59042.03;5038365;28;20029;-57
2022/12/11 07:16:12;;;;;;;49.08;12.52;;;;;;;0.01;0.00;59042.03;5038081;28;20380;-58
2022/12/11 07:18:40;;;;;;;52.85;13.38;;;;;;;0.01;0.00;59042.03;5039195;28;20041;-58
2022/12/11 07:21:06;;;;;;;46.70;13.05;;;;;;;0.01;0.00;59042.03;5037559;28;20510;-58
2022/12/11 07:23:33;;;;;;;49.20;13.82;;;;;;;0.01;0.00;59042.03;5038754;28;20106;-58
2022/12/11 07:26:03;;;;;;;47.15;13.73;;;;;;;0.01;0.00;59042.03;5037561;28;20025;-58
2022/12/11 07:28:28;;;;;;;40.63;10.73;;;;;;;0.01;0.00;59042.03;5038339;28;20205;-58
2022/12/11 07:30:54;;;;;;;53.58;13.50;;;;;;;0.01;0.00;59042.03;5037839;28;20151;-61
2022/12/11 07:33:19;;;;;;;48.72;13.10;;;;;;;0.01;0.00;59042.03;5038155;28;20048;-60
2022/12/11 07:35:44;;;;;;;39.65;10.73;;;;;;;0.01;0.00;59042.03;5038152;28;20742;-58
2022/12/11 07:38:10;;;;;;;63.13;14.48;;;;;;;0.01;0.00;59042.03;5038132;28;20371;-61
2022/12/11 07:40:36;;;;;;;48.80;12.80;;;;;;;0.01;0.00;59042.03;5038120;28;20040;-59
2022/12/11 07:43:01;;;;;;;48.90;13.15;;;;;;;0.01;0.00;59042.03;5037726;28;20033;-60
2022/12/11 07:45:26;;;;;;;44.63;12.48;;;;;;;0.01;0.00;59042.03;5037891;28;20058;-58
2022/12/11 07:47:52;;;;;;;45.85;12.52;;;;;;;0.01;0.00;59042.03;5038218;28;20097;-58
2022/12/11 07:50:17;;;;;;;43.47;10.38;;;;;;;0.01;0.00;59042.03;5037859;28;20068;-59
2022/12/11 07:52:43;;;;;;;40.92;12.10;;;;;;;0.01;0.00;59042.03;5037858;28;20487;-60
2022/12/11 07:55:08;;;;;;;52.88;13.75;;;;;;;0.01;0.00;59042.03;5037400;28;20112;-57
2022/12/11 07:57:34;;;;;;;39.75;11.15;;;;;;;0.01;0.00;59042.03;5037760;28;20021;-58
2022/12/11 07:59:59;;;;;;;45.10;12.23;;;;;;;0.01;0.00;59042.03;5038212;28;20028;-59
2022/12/11 08:02:24;;;;;;;44.58;14.05;;;;;;;0.01;0.00;59042.03;5028723;28;20604;-58
2022/12/11 08:04:50;;;;;;;37.92;11.98;;;;;;;0.01;0.00;59042.03;5038091;28;20545;-58
2022/12/11 08:07:15;;;;;;;41.53;13.10;;;;;;;0.01;0.00;59042.03;5038372;28;20040;-61
2022/12/11 08:09:41;;;;;;;43.88;12.40;;;;;;;0.01;0.00;59042.03;5039528;28;20489;-61
2022/12/11 08:12:06;;;;;;;36.72;11.18;;;;;;;0.01;0.00;59042.03;5039127;28;20049;-59
2022/12/11 08:14:31;;;;;;;39.33;11.82;;;;;;;0.01;0.00;59042.03;5039613;28;21031;-59
2022/12/11 08:16:58;;;;;;;36.65;9.88;;;;;;;0.01;0.00;59042.03;5038149;28;20045;-58
2022/12/11 08:19:24;;;;;;;36.78;10.75;;;;;;;0.01;0.00;59042.03;5039799;28;20027;-61
2022/12/11 08:21:50;;;;;;;41.08;12.50;;;;;;;0.01;0.00;59042.03;5037863;28;20045;-61
2022/12/11 08:24:19;;;;;;;36.85;9.30;;;;;;;0.01;0.00;59042.03;5039555;28;20035;-61
2022/12/11 08:26:44;;;;;;;40.70;10.57;;;;;;;0.01;0.00;59042.03;5038866;28;20047;-60
2022/12/11 08:29:10;;;;;;;36.33;10.13;;;;;;;0.01;0.00;59042.03;5039545;28;20119;-60
2022/12/11 08:31:35;;;;;;;39.88;11.60;;;;;;;0.01;0.00;59042.03;5038804;28;20148;-59
2022/12/11 08:34:01;;;;;;;35.15;11.02;;;;;;;0.01;0.00;59042.03;5039441;28;20033;-58
2022/12/11 08:36:27;;;;;;;34.40;11.10;;;;;;;0.01;0.00;59042.03;5039078;28;20041;-60
2022/12/11 08:38:54;;;;;;;41.47;9.55;;;;;;;0.01;0.00;59042.03;5039529;28;20028;-59
2022/12/11 08:41:26;;;;;;;34.83;9.90;;;;;;;0.01;0.00;59042.03;5037496;28;20530;-58
2022/12/11 08:43:53;;;;;;;42.50;11.80;;;;;;;0.01;0.00;59042.03;5038777;28;20032;-58
2022/12/11 08:46:24;;;;;;;37.90;11.30;;;;;;;0.01;0.00;59042.03;5039132;28;20071;-63
2022/12/11 08:48:49;;;;;;;44.65;12.70;;;;;;;0.01;0.00;59042.03;5038682;28;20108;-56
2022/12/11 08:51:18;;;;;;;38.35;11.23;;;;;;;0.01;0.00;59042.03;5038577;28;20132;-58
2022/12/11 08:53:44;;;;;;;36.28;10.43;;;;;;;0.01;0.00;59042.03;5039608;28;20039;-57
2022/12/11 08:56:12;;;;;;;45.60;12.10;;;;;;;0.01;0.00;59042.03;5038086;28;20033;-59
2022/12/11 08:58:37;;;;;;;48.75;12.18;;;;;;;0.01;0.00;59042.03;5036069;28;20029;-57
2022/12/11 09:01:11;;;;;;;42.30;10.95;;;;;;;0.01;0.00;59042.03;5035790;28;20037;-57
2022/12/11 09:03:37;;;;;;;31.67;9.02;;;;;;;0.01;0.00;59042.03;5027802;28;20037;-58
2022/12/11 09:06:04;;;;;;;36.97;11.13;;;;;;;0.01;0.00;59042.03;5038147;28;20033;-56
2022/12/11 09:08:30;;;;;;;38.35;11.68;;;;;;;0.01;0.00;59042.03;5039000;28;20109;-58
2022/12/11 09:11:00;;;;;;;40.00;10.77;;;;;;;0.01;0.00;59042.03;5038652;28;20044;-60
2022/12/11 09:13:26;;;;;;;36.08;10.32;;;;;;;0.01;0.00;59042.03;5038724;28;20029;-60
2022/12/11 09:15:51;;;;;;;39.75;11.38;;;;;;;0.01;0.00;59042.03;5037996;28;20043;-58
2022/12/11 09:18:16;;;;;;;32.58;7.78;;;;;;;0.01;0.00;59042.03;5040463;28;20020;-59
2022/12/11 09:20:42;;;;;;;42.58;11.57;;;;;;;0.01;0.00;59042.03;5042317;28;20132;-59
2022/12/11 09:23:07;;;;;;;40.33;12.15;;;;;;;0.01;0.00;59042.03;5042425;28;20087;-60
2022/12/11 09:25:33;;;;;;;43.80;11.98;;;;;;;0.01;0.00;59042.03;5039908;28;20383;-59
2022/12/11 09:27:58;;;;;;;44.63;11.13;;;;;;;0.01;0.00;59042.03;5038487;28;20033;-58
2022/12/11 09:30:24;;;;;;;45.65;11.65;;;;;;;0.01;0.00;59042.03;5039200;28;20631;-59
2022/12/11 09:32:49;;;;;;;42.25;10.80;;;;;;;0.01;0.00;59042.03;5039674;28;20025;-57
2022/12/11 09:35:14;;;;;;;37.92;12.02;;;;;;;0.01;0.00;59042.03;5041217;28;20032;-59
2022/12/11 09:37:40;;;;;;;45.15;12.60;;;;;;;0.01;0.00;59042.03;5041937;28;20029;-59
2022/12/11 09:40:06;;;;;;;32.00;9.13;;;;;;;0.01;0.00;59042.03;5040871;28;20025;-59
2022/12/11 09:42:42;;;;;;;34.90;10.75;;;;;;;0.01;0.00;59042.03;5040421;28;20021;-58
2022/12/11 09:45:14;;;;;;;30.85;7.05;;;;;;;0.01;0.00;59042.03;5041679;28;20060;-57
2022/12/11 09:47:39;;;;;;;37.40;10.32;;;;;;;0.01;0.00;59042.03;5023481;28;20017;-60
2022/12/11 09:50:14;;;;;;;73.70;16.90;;;;;;;0.01;0.00;59042.03;5041553;28;20029;-57
2022/12/11 09:52:48;;;;;;;46.97;14.35;;;;;;;0.01;0.00;59042.03;5041169;28;20017;-61
2022/12/11 09:55:23;;;;;;;49.97;17.00;;;;;;;0.01;0.00;59042.03;5041839;28;20047;-57
2022/12/11 09:58:27;;;;;;;63.75;19.45;;;;;;;0.01;0.00;59042.03;5037937;28;20391;-57
2022/12/11 10:00:56;;;;;;;55.10;18.33;;;;;;;0.01;0.00;59042.03;5038435;28;20594;-56
2022/12/11 10:03:49;;;;;;;43.70;12.07;;;;;;;0.01;0.00;59042.03;5041385;28;20049;-58
2022/12/11 10:06:26;;;;;;;41.30;11.90;;;;;;;0.01;0.00;59042.03;5041421;28;20073;-59
2022/12/11 10:09:07;;;;;;;50.45;15.48;;;;;;;0.01;0.00;59042.03;5041144;28;20021;-60
2022/12/11 10:11:55;;;;;;;38.10;11.88;;;;;;;0.01;0.00;59042.03;5041318;28;20051;-58
2022/12/11 10:14:45;;;;;;;35.50;12.10;;;;;;;0.01;0.00;59042.03;5041853;28;20076;-57
2022/12/11 10:17:30;;;;;;;40.72;11.43;;;;;;;0.01;0.00;59042.03;5032868;28;20061;-57
2022/12/11 10:20:04;;;;;;;40.53;11.88;;;;;;;0.01;0.00;59042.03;5035960;28;20163;-57
2022/12/11 10:22:32;;;;;;;30.98;11.23;;;;;;;0.01;0.00;59042.03;5040690;28;20845;-56
2022/12/11 10:25:01;;;;;;;32.03;9.48;;;;;;;0.01;0.00;59042.03;5041744;28;20017;-58
2022/12/11 10:27:32;;;;;;;34.00;9.98;;;;;;;0.01;0.00;59042.03;5040110;28;20049;-62
2022/12/11 10:30:14;;;;;;;33.33;9.93;;;;;;;0.01;0.00;59042.03;5039430;28;20055;-59
2022/12/11 10:32:45;;;;;;;35.80;9.40;;;;;;;0.01;0.00;59042.03;5040920;28;20064;-59
2022/12/11 10:35:35;;;;;;;32.53;9.50;;;;;;;0.01;0.00;59042.03;5039321;28;20037;-61
2022/12/11 10:38:09;;;;;;;25.80;7.63;;;;;;;0.01;0.00;59042.03;5041001;28;20072;-60
2022/12/11 10:40:37;;;;;;;34.10;8.90;;;;;;;0.01;0.00;59042.03;5037923;28;20814;-60
2022/12/11 10:43:02;;;;;;;29.00;8.98;;;;;;;0.01;0.00;59042.03;5037712;28;20178;-61
2022/12/11 10:45:27;;;;;;;32.50;7.85;;;;;;;0.01;0.00;59042.03;5038058;28;20139;-59
2022/12/11 10:48:04;;;;;;;45.83;10.48;;;;;;;0.01;0.00;59042.03;5036853;28;20490;-60
2022/12/11 10:50:29;;;;;;;36.55;9.88;;;;;;;0.01;0.00;59042.03;5036549;28;20067;-59
2022/12/11 10:52:55;;;;;;;32.60;9.10;;;;;;;0.01;0.00;59042.03;5038366;28;20017;-60
2022/12/11 10:55:29;;;;;;;33.90;9.43;;;;;;;0.01;0.00;59042.03;5039657;28;20135;-58
2022/12/11 10:58:01;;;;;;;33.42;9.95;;;;;;;0.01;0.00;59042.03;5040375;28;20032;-60
2022/12/11 11:00:37;;;;;;;29.33;7.72;;;;;;;0.01;0.00;59042.03;5039754;28;20035;-59
2022/12/11 11:03:24;;;;;;;30.33;8.27;;;;;;;0.01;0.00;59042.03;5040540;28;20021;-61
2022/12/11 11:06:00;;;;;;;24.92;6.68;;;;;;;0.01;0.00;59042.03;5039141;28;20120;-59
2022/12/11 11:08:26;;;;;;;26.10;7.38;;;;;;;0.01;0.00;59042.03;5040592;28;20029;-61
2022/12/11 11:10:54;;;;;;;37.75;8.60;;;;;;;0.01;0.00;59042.03;5039173;28;20029;-57
2022/12/11 11:13:25;;;;;;;27.25;7.50;;;;;;;0.01;0.00;59042.03;5040627;28;20025;-60
2022/12/11 11:16:06;;;;;;;31.27;7.38;;;;;;;0.01;0.00;59042.03;5037996;28;20041;-57
2022/12/11 11:18:33;;;;;;;27.25;6.55;;;;;;;0.01;0.00;59042.03;5038043;28;20104;-53
2022/12/11 11:20:59;;;;;;;30.17;7.65;;;;;;;0.01;0.00;59042.03;5038341;28;20079;-54
2022/12/11 11:23:26;;;;;;;25.40;6.30;;;;;;;0.01;0.00;59042.03;5037506;28;20033;-53
2022/12/11 11:25:59;;;;;;;41.90;8.85;;;;;;;0.01;0.00;59042.03;5037042;28;20033;-53
2022/12/11 11:28:32;;;;;;;23.55;6.45;;;;;;;0.01;0.00;59042.03;5038311;28;20029;-53
2022/12/11 11:31:02;;;;;;;36.20;8.10;;;;;;;0.01;0.00;59042.03;5038800;28;20037;-55
2022/12/11 11:33:30;;;;;;;27.17;7.40;;;;;;;0.01;0.00;59042.03;5040218;28;20061;-53
2022/12/11 11:35:59;;;;;;;28.80;5.95;;;;;;;0.01;0.00;59042.03;5039541;28;20589;-57
2022/12/11 11:38:30;;;;;;;34.03;8.38;;;;;;;0.01;0.00;59042.03;5040558;28;20029;-53
2022/12/11 11:41:20;;;;;;;35.17;8.38;;;;;;;0.01;0.00;59042.03;5038290;28;20033;-54
2022/12/11 11:43:50;;;;;;;27.88;7.22;;;;;;;0.01;0.00;59042.03;5039801;28;20162;-52
2022/12/11 11:46:46;;;;;;;35.67;8.98;;;;;;;0.01;0.00;59042.03;5039241;28;20041;-55
2022/12/11 11:49:11;;;;;;;42.20;10.25;;;;;;;0.01;0.00;59042.03;5040037;28;20045;-54
2022/12/11 11:52:18;;;;;;;33.80;8.43;;;;;;;0.01;0.00;59042.03;5039588;28;20072;-54